Time;durP1;ratioP1;P1;durP2;ratioP2;P2;SDS_P1;SDS_P2;PMS_P1;PMS_P2;Temp;Humidity;BMP_temperature;BMP_pressure;BME280_temperature;BME280_humidity;BME280_pressure;Samples;Min_cycle;Max_cycle;Signal;HPM_P1;HPM_P2
2022/11/12 00:02:18;;;;;;;12.77;7.93;;;9.80;91.90;;;;;;6338499;22;20002;-69
2022/11/12 00:04:44;;;;;;;11.87;7.40;;;9.80;92.10;;;;;;6337803;22;19994;-68
2022/11/12 00:07:10;;;;;;;16.57;8.73;;;9.80;92.20;;;;;;6337495;22;20011;-69
2022/11/12 00:09:35;;;;;;;11.57;8.43;;;9.80;92.20;;;;;;6338074;22;20002;-68
2022/11/12 00:12:01;;;;;;;10.70;7.10;;;9.80;92.20;;;;;;6338168;22;20026;-69
2022/11/12 00:14:26;;;;;;;15.23;7.32;;;9.70;92.20;;;;;;6339255;22;20025;-68
2022/11/12 00:16:52;;;;;;;10.20;7.55;;;9.70;92.30;;;;;;6340006;22;19999;-68
2022/11/12 00:19:18;;;;;;;12.50;7.65;;;9.70;92.30;;;;;;6339645;22;19999;-68
2022/11/12 00:21:43;;;;;;;10.05;7.78;;;9.70;92.30;;;;;;6339980;22;20091;-68
2022/11/12 00:24:09;;;;;;;13.57;7.40;;;9.70;92.20;;;;;;6339524;22;20007;-68
2022/11/12 00:26:35;;;;;;;11.27;8.00;;;9.70;92.30;;;;;;6340095;22;20011;-69
2022/11/12 00:29:00;;;;;;;10.87;7.23;;;9.70;92.40;;;;;;6312266;22;20417;-68
2022/11/12 00:31:26;;;;;;;9.27;6.70;;;9.70;92.40;;;;;;6339593;22;19999;-69
2022/11/12 00:33:52;;;;;;;8.90;6.83;;;9.60;92.30;;;;;;6339349;22;19991;-68
2022/11/12 00:36:17;;;;;;;8.43;6.30;;;9.60;92.30;;;;;;6339812;22;20003;-68
2022/11/12 00:38:43;;;;;;;10.80;6.67;;;9.60;92.20;;;;;;6339673;22;19995;-69
2022/11/12 00:41:08;;;;;;;7.57;5.77;;;9.60;92.20;;;;;;6339617;22;20058;-68
2022/11/12 00:43:34;;;;;;;10.80;5.87;;;9.60;92.20;;;;;;6339778;22;20003;-68
2022/11/12 00:46:00;;;;;;;8.87;4.90;;;9.50;92.20;;;;;;6340176;22;20325;-68
2022/11/12 00:48:25;;;;;;;8.23;5.33;;;9.50;92.20;;;;;;6339488;22;19999;-68
2022/11/12 00:50:57;;;;;;;10.00;4.97;;;9.50;92.20;;;;;;6339573;22;20386;-68
2022/11/12 00:53:23;;;;;;;9.27;5.28;;;9.50;92.10;;;;;;6339552;22;20005;-68
2022/11/12 00:55:48;;;;;;;9.53;5.63;;;9.50;92.10;;;;;;6339199;22;19998;-68
2022/11/12 00:58:14;;;;;;;10.30;5.47;;;9.50;92.30;;;;;;6339561;22;20002;-68
2022/11/12 01:00:40;;;;;;;9.37;6.57;;;9.50;92.30;;;;;;6339480;22;20128;-68
2022/11/12 01:03:05;;;;;;;11.63;6.10;;;9.50;92.30;;;;;;6339387;22;20010;-68
2022/11/12 01:05:32;;;;;;;9.90;6.00;;;9.50;92.30;;;;;;6339133;22;20003;-68
2022/11/12 01:07:58;;;;;;;9.97;5.50;;;9.40;92.30;;;;;;6339326;22;19998;-68
2022/11/12 01:10:24;;;;;;;8.40;5.90;;;9.40;92.30;;;;;;6339338;22;20048;-68
2022/11/12 01:13:13;;;;;;;10.53;5.17;;;9.40;92.30;;;;;;6339033;22;20006;-68
2022/11/12 01:15:41;;;;;;;7.77;5.27;;;9.40;92.40;;;;;;6339269;22;20002;-68
2022/11/12 01:18:07;;;;;;;9.68;4.75;;;9.40;92.40;;;;;;6339083;22;20002;-68
2022/11/12 01:20:32;;;;;;;8.63;4.83;;;9.40;92.40;;;;;;6339482;22;20003;-69
2022/11/12 01:22:58;;;;;;;7.13;4.43;;;9.40;92.40;;;;;;6311505;22;20086;-68
2022/11/12 01:25:24;;;;;;;5.63;3.97;;;9.40;92.40;;;;;;6311761;22;20030;-69
2022/11/12 01:27:49;;;;;;;7.80;4.50;;;9.40;92.50;;;;;;6339265;22;20014;-68
2022/11/12 01:30:15;;;;;;;7.87;4.50;;;9.40;92.50;;;;;;6339195;22;20073;-69
2022/11/12 01:32:41;;;;;;;7.40;4.53;;;9.40;92.50;;;;;;6339195;22;20102;-69
2022/11/12 01:35:06;;;;;;;6.77;4.20;;;9.40;92.40;;;;;;6338927;22;20006;-69
2022/11/12 01:37:32;;;;;;;7.67;4.20;;;9.30;92.50;;;;;;6339221;22;20086;-69
2022/11/12 01:39:58;;;;;;;7.93;3.95;;;9.40;92.60;;;;;;6339412;22;20006;-68
2022/11/12 01:42:28;;;;;;;7.03;4.30;;;9.30;92.50;;;;;;6339136;22;20072;-68
2022/11/12 01:44:54;;;;;;;6.90;4.17;;;9.30;92.50;;;;;;6339547;22;19999;-68
2022/11/12 01:47:32;;;;;;;7.40;4.23;;;9.40;92.40;;;;;;6339021;22;20049;-68
2022/11/12 01:50:20;;;;;;;8.53;4.30;;;9.30;92.40;;;;;;6339010;22;20380;-68
2022/11/12 01:52:50;;;;;;;8.60;3.67;;;9.30;92.30;;;;;;6339077;22;20034;-68
2022/11/12 01:55:21;;;;;;;6.33;4.33;;;9.30;92.30;;;;;;6338732;22;20085;-68
2022/11/12 01:58:10;;;;;;;6.93;3.93;;;9.30;92.20;;;;;;6337413;22;20006;-69
2022/11/12 02:00:36;;;;;;;7.20;3.53;;;9.30;92.30;;;;;;6307514;22;20433;-69
2022/11/12 02:03:04;;;;;;;9.40;4.53;;;9.30;92.30;;;;;;6335584;22;20066;-69
2022/11/12 02:05:31;;;;;;;8.37;4.67;;;9.30;92.20;;;;;;6337770;22;19999;-68
2022/11/12 02:08:00;;;;;;;7.47;4.07;;;9.30;92.20;;;;;;6338833;22;20006;-69
2022/11/12 02:10:26;;;;;;;6.47;4.47;;;9.30;92.20;;;;;;6338539;22;19999;-68
2022/11/12 02:15:38;;;;;;;5.63;4.20;;;9.30;92.20;;;;;;6338761;22;20014;-69
2022/11/12 02:18:04;;;;;;;7.57;4.57;;;9.30;92.10;;;;;;6338848;22;20424;-69
2022/11/12 02:20:37;;;;;;;9.03;4.30;;;9.20;92.10;;;;;;6338460;22;20373;-68
2022/11/12 02:23:04;;;;;;;;;;;9.20;92.10;;;;;;6339160;22;19995;-68
2022/11/12 02:25:29;;;;;;;7.77;4.83;;;9.20;92.10;;;;;;6338570;22;19906;-69
2022/11/12 02:27:57;;;;;;;7.63;4.80;;;9.10;92.00;;;;;;6338451;22;20451;-69
2022/11/12 02:30:45;;;;;;;10.03;4.77;;;9.10;92.00;;;;;;6338796;22;20007;-68
2022/11/12 02:33:11;;;;;;;10.83;5.17;;;9.10;92.00;;;;;;6338482;22;20099;-69
2022/11/12 02:35:37;;;;;;;8.53;4.83;;;9.00;91.90;;;;;;6338046;22;20413;-69
2022/11/12 02:38:04;;;;;;;9.13;5.13;;;9.00;91.90;;;;;;6338594;22;20003;-69
2022/11/12 02:40:29;;;;;;;8.77;4.43;;;9.00;91.80;;;;;;6338565;22;20086;-69
2022/11/12 02:42:55;;;;;;;9.30;5.23;;;8.90;91.90;;;;;;6338286;22;20027;-69
2022/11/12 02:45:21;;;;;;;8.67;4.47;;;8.90;91.90;;;;;;6338639;22;20481;-69
2022/11/12 02:47:47;;;;;;;7.93;5.17;;;8.90;92.00;;;;;;6338276;22;20017;-69
2022/11/12 02:50:13;;;;;;;8.37;5.03;;;8.90;92.20;;;;;;6338785;22;19999;-69
2022/11/12 02:52:39;;;;;;;8.00;4.83;;;8.80;91.90;;;;;;6338613;22;19999;-68
2022/11/12 02:55:06;;;;;;;8.57;5.30;;;8.80;91.90;;;;;;6338488;22;20018;-68
2022/11/12 02:57:32;;;;;;;13.10;5.20;;;8.80;92.00;;;;;;6310549;22;20060;-68
2022/11/12 02:59:57;;;;;;;11.00;4.80;;;8.70;92.10;;;;;;6338397;22;19998;-69
2022/11/12 03:02:23;;;;;;;8.40;5.27;;;8.70;92.10;;;;;;6338196;22;20040;-69
2022/11/12 03:04:49;;;;;;;8.77;5.00;;;8.70;92.20;;;;;;6338357;22;19995;-68
2022/11/12 03:07:15;;;;;;;10.03;4.97;;;8.70;92.30;;;;;;6338434;22;20021;-69
2022/11/12 03:09:40;;;;;;;10.10;5.40;;;8.70;92.30;;;;;;6338470;22;20083;-68
2022/11/12 03:12:06;;;;;;;8.80;5.70;;;8.70;92.30;;;;;;6338232;22;20413;-68
2022/11/12 03:14:31;;;;;;;7.07;4.83;;;8.70;92.30;;;;;;6338443;22;20332;-68
2022/11/12 03:16:57;;;;;;;8.00;4.83;;;8.70;92.30;;;;;;6338326;22;20421;-68
2022/11/12 03:19:23;;;;;;;7.73;5.03;;;8.70;92.30;;;;;;6338364;22;20409;-68
2022/11/12 03:21:48;;;;;;;11.60;5.70;;;8.60;92.30;;;;;;6338458;22;20302;-69
2022/11/12 03:24:14;;;;;;;7.90;5.27;;;8.60;92.40;;;;;;6310488;22;20022;-68
2022/11/12 03:26:40;;;;;;;8.97;4.97;;;8.60;92.50;;;;;;6338116;22;20007;-68
2022/11/12 03:29:05;;;;;;;6.53;4.87;;;8.60;92.40;;;;;;6338331;22;19995;-69
2022/11/12 03:31:31;;;;;;;8.53;5.03;;;8.60;92.50;;;;;;6338361;22;20371;-69
2022/11/12 03:33:57;;;;;;;15.43;4.87;;;8.60;92.50;;;;;;6338227;22;20367;-69
2022/11/12 03:36:22;;;;;;;10.83;4.97;;;8.60;92.50;;;;;;6338399;22;20006;-69
2022/11/12 03:38:48;;;;;;;9.83;4.60;;;8.60;92.50;;;;;;6338379;22;20005;-69
2022/11/12 03:41:14;;;;;;;11.20;4.37;;;8.60;92.60;;;;;;6338174;22;20336;-69
2022/11/12 03:43:39;;;;;;;9.03;4.40;;;8.60;92.60;;;;;;6338165;22;20014;-68
2022/11/12 03:46:05;;;;;;;11.10;4.97;;;8.60;92.60;;;;;;6338060;22;20014;-69
2022/11/12 03:48:30;;;;;;;6.33;4.10;;;8.60;92.60;;;;;;6338917;22;19999;-68
2022/11/12 03:50:57;;;;;;;6.00;4.07;;;8.70;92.60;;;;;;6340287;22;20081;-68
2022/11/12 03:53:23;;;;;;;9.70;4.23;;;8.60;92.80;;;;;;6340124;22;20321;-68
2022/11/12 03:55:49;;;;;;;4.87;3.23;;;8.60;92.90;;;;;;6339841;22;19999;-69
2022/11/12 03:58:14;;;;;;;4.27;3.00;;;8.70;92.80;;;;;;6340169;22;20430;-69
2022/11/12 04:00:40;;;;;;;8.40;3.80;;;8.60;92.70;;;;;;6340164;22;20003;-69
2022/11/12 04:03:06;;;;;;;8.77;4.33;;;8.70;92.60;;;;;;6339867;22;19995;-69
2022/11/12 04:08:36;;;;;;;6.77;4.40;;;8.70;92.40;;;;;;6339965;22;20010;-69
2022/11/12 04:11:07;;;;;;;12.50;5.30;;;8.70;92.40;;;;;;6339915;22;20069;-72
2022/11/12 04:13:33;;;;;;;10.80;4.97;;;8.60;92.40;;;;;;6339903;22;20409;-69
2022/11/12 04:21:55;;;;;;;7.23;4.50;;;8.60;92.70;;;;;;6339939;22;20036;-69
2022/11/12 04:27:23;;;;;;;10.97;5.07;;;8.60;92.70;;;;;;6339783;22;20098;-69
2022/11/12 04:32:36;;;;;;;10.70;5.53;;;8.60;92.90;;;;;;6340039;22;20060;-68
2022/11/12 04:35:03;;;;;;;8.43;4.83;;;8.60;92.80;;;;;;6339877;22;20010;-68
2022/11/12 04:37:43;;;;;;;9.17;4.50;;;8.60;92.90;;;;;;6339848;22;20302;-69
2022/11/12 04:46:00;;;;;;;11.50;4.40;;;8.60;93.00;;;;;;6336176;22;20021;-69
2022/11/12 04:48:26;;;;;;;6.90;4.70;;;8.60;93.00;;;;;;6337850;22;20003;-69
2022/11/12 04:50:57;;;;;;;8.53;4.80;;;8.60;93.00;;;;;;6339852;22;19999;-69
2022/11/12 04:53:23;;;;;;;6.67;4.27;;;8.60;93.10;;;;;;6339373;22;20018;-69
2022/11/12 04:55:53;;;;;;;8.70;3.97;;;8.60;93.20;;;;;;6339590;22;19999;-68
2022/11/12 04:58:19;;;;;;;6.57;3.73;;;8.60;93.20;;;;;;6339723;22;20082;-69
2022/11/12 05:00:45;;;;;;;7.00;3.93;;;8.60;93.30;;;;;;6339345;22;20038;-69
2022/11/12 05:03:11;;;;;;;7.60;3.83;;;8.60;93.30;;;;;;6339459;22;19995;-67
2022/11/12 05:05:37;;;;;;;6.23;3.63;;;8.70;93.40;;;;;;6339063;22;20006;-68
2022/11/12 05:08:03;;;;;;;4.90;3.33;;;8.70;93.30;;;;;;6337876;22;20063;-69
2022/11/12 05:10:29;;;;;;;8.40;3.50;;;8.70;93.30;;;;;;6336062;22;20007;-69
2022/11/12 05:12:55;;;;;;;7.20;3.37;;;8.70;93.30;;;;;;6335847;22;20003;-69
2022/11/12 05:15:21;;;;;;;7.50;3.43;;;8.70;93.30;;;;;;6337728;22;20013;-68
2022/11/12 05:17:46;;;;;;;3.77;3.00;;;8.70;93.30;;;;;;6339398;22;20086;-68
2022/11/12 05:20:13;;;;;;;8.77;3.40;;;8.70;93.30;;;;;;6339220;22;20393;-68
2022/11/12 05:22:39;;;;;;;4.83;3.30;;;8.80;93.30;;;;;;6338496;22;20332;-68
2022/11/12 05:25:06;;;;;;;5.93;3.17;;;8.80;93.20;;;;;;6338997;22;20013;-68
2022/11/12 05:27:31;;;;;;;8.40;3.30;;;8.80;93.20;;;;;;6338891;22;20011;-68
2022/11/12 05:29:57;;;;;;;5.67;3.13;;;8.70;93.20;;;;;;6339229;22;20428;-68
2022/11/12 05:32:23;;;;;;;5.27;3.10;;;8.80;93.20;;;;;;6338667;22;20064;-68
2022/11/12 05:34:48;;;;;;;9.93;3.20;;;8.70;93.30;;;;;;6339177;22;20005;-68
2022/11/12 05:37:14;;;;;;;8.00;3.30;;;8.70;93.20;;;;;;6339098;22;20010;-69
2022/11/12 05:39:40;;;;;;;7.63;3.60;;;8.70;93.20;;;;;;6338647;22;20018;-69
2022/11/12 05:42:06;;;;;;;6.40;3.27;;;8.70;93.20;;;;;;6338644;22;20074;-69
2022/11/12 05:44:32;;;;;;;7.00;3.63;;;8.70;93.10;;;;;;6339001;22;19999;-68
2022/11/12 05:46:58;;;;;;;8.23;4.03;;;8.70;93.20;;;;;;6338338;22;20013;-69
2022/11/12 05:49:23;;;;;;;6.53;4.07;;;8.70;93.20;;;;;;6310872;22;20054;-68
2022/11/12 05:51:50;;;;;;;8.50;3.60;;;8.70;93.30;;;;;;6339002;22;20428;-68
2022/11/12 05:54:16;;;;;;;6.57;3.67;;;8.70;93.20;;;;;;6338467;22;20452;-69
2022/11/12 05:56:42;;;;;;;5.50;3.97;;;8.70;93.30;;;;;;6311205;22;20033;-69
2022/11/12 05:59:10;;;;;;;8.03;3.40;;;8.60;93.30;;;;;;6338593;22;20439;-68
2022/11/12 06:01:42;;;;;;;5.67;3.70;;;8.60;93.30;;;;;;6338273;22;20023;-68
2022/11/12 06:04:10;;;;;;;5.90;3.47;;;8.60;93.40;;;;;;6338779;22;19999;-69
2022/11/12 06:06:36;;;;;;;9.27;3.50;;;8.70;93.40;;;;;;6338404;22;20015;-69
2022/11/12 06:09:03;;;;;;;8.57;3.60;;;8.70;93.40;;;;;;6338317;22;20097;-68
2022/11/12 06:11:28;;;;;;;7.60;3.17;;;8.70;93.40;;;;;;6338361;22;20006;-69
2022/11/12 06:13:54;;;;;;;5.33;3.27;;;8.70;93.50;;;;;;6338850;22;20040;-70
2022/11/12 06:16:20;;;;;;;4.23;2.87;;;8.70;93.60;;;;;;6338258;22;20496;-68
2022/11/12 06:18:45;;;;;;;4.80;2.80;;;8.70;93.60;;;;;;6338593;22;20026;-69
2022/11/12 06:21:23;;;;;;;8.00;3.17;;;8.80;93.60;;;;;;6338567;22;20329;-68
2022/11/12 06:23:57;;;;;;;8.33;3.37;;;8.80;93.50;;;;;;6338227;22;20034;-69
2022/11/12 06:26:24;;;;;;;5.33;3.10;;;8.80;93.50;;;;;;6338681;22;20011;-70
2022/11/12 06:28:50;;;;;;;9.87;3.30;;;8.80;93.50;;;;;;6338573;22;19998;-69
2022/11/12 06:31:16;;;;;;;7.60;3.47;;;8.80;93.40;;;;;;6338216;22;20440;-68
2022/11/12 06:33:44;;;;;;;6.67;3.47;;;8.80;93.50;;;;;;6338548;22;19995;-68
2022/11/12 06:36:12;;;;;;;7.07;3.17;;;8.90;93.50;;;;;;6338334;22;19995;-69
2022/11/12 06:38:39;;;;;;;5.60;3.03;;;8.80;93.50;;;;;;6337600;22;19999;-68
2022/11/12 06:41:07;;;;;;;5.93;3.67;;;8.90;93.60;;;;;;6338530;22;20002;-68
2022/11/12 06:43:33;;;;;;;4.43;2.93;;;8.90;93.60;;;;;;6338064;22;20010;-69
2022/11/12 06:46:01;;;;;;;7.27;3.60;;;8.90;93.60;;;;;;6337600;22;20002;-69
2022/11/12 06:48:28;;;;;;;8.83;4.00;;;8.90;93.50;;;;;;6338263;22;20103;-69
2022/11/12 06:50:53;;;;;;;6.30;4.27;;;8.90;93.50;;;;;;6338307;22;20056;-69
2022/11/12 06:53:19;;;;;;;7.03;4.93;;;8.90;93.50;;;;;;6338367;22;20367;-69
2022/11/12 06:55:44;;;;;;;10.07;6.13;;;8.90;93.50;;;;;;6338294;22;19995;-69
2022/11/12 06:58:10;;;;;;;14.67;7.53;;;8.90;93.50;;;;;;6338149;22;19999;-70
2022/11/12 07:00:36;;;;;;;7.57;5.70;;;8.90;93.60;;;;;;6337721;22;20075;-70
2022/11/12 07:03:08;;;;;;;9.83;6.43;;;8.90;93.80;;;;;;6338192;22;20002;-69
2022/11/12 07:05:37;;;;;;;10.35;6.20;;;8.90;93.90;;;;;;6338258;22;19999;-69
2022/11/12 07:08:04;;;;;;;13.80;5.70;;;8.90;94.00;;;;;;6309878;22;20427;-70
2022/11/12 07:10:30;;;;;;;9.20;6.13;;;8.90;94.00;;;;;;6337695;22;19995;-70
2022/11/12 07:12:56;;;;;;;10.23;6.00;;;9.00;94.00;;;;;;6337642;22;20003;-73
2022/11/12 07:15:22;;;;;;;11.07;5.70;;;8.90;94.10;;;;;;6337758;22;19991;-72
2022/11/12 07:17:47;;;;;;;11.00;5.70;;;9.00;94.10;;;;;;6337578;22;20070;-71
2022/11/12 07:20:13;;;;;;;11.17;5.37;;;9.00;94.10;;;;;;6309886;22;20006;-72
2022/11/12 07:22:38;;;;;;;13.47;5.40;;;9.00;94.30;;;;;;6337732;22;19994;-72
2022/11/12 07:25:05;;;;;;;9.30;5.43;;;9.00;94.30;;;;;;6339340;22;20026;-73
2022/11/12 07:27:30;;;;;;;10.67;5.20;;;9.10;94.40;;;;;;6339425;22;20011;-72
2022/11/12 07:29:56;;;;;;;9.57;4.70;;;9.10;94.50;;;;;;6339527;22;20321;-72
2022/11/12 07:32:22;;;;;;;12.87;4.73;;;9.10;94.50;;;;;;6338792;22;20089;-72
2022/11/12 07:34:49;;;;;;;8.60;4.80;;;9.20;94.50;;;;;;6340373;22;20006;-68
2022/11/12 07:37:15;;;;;;;7.20;5.10;;;9.20;94.50;;;;;;6340592;22;20396;-68
2022/11/12 07:39:41;;;;;;;11.63;4.80;;;9.20;94.50;;;;;;6340351;22;20006;-68
2022/11/12 07:42:06;;;;;;;10.50;4.87;;;9.20;94.50;;;;;;6340461;22;20030;-68
2022/11/12 07:44:32;;;;;;;11.63;4.50;;;9.30;94.50;;;;;;6340141;22;20011;-68
2022/11/12 07:46:58;;;;;;;8.00;4.63;;;9.30;94.50;;;;;;6339860;22;20011;-68
2022/11/12 07:49:24;;;;;;;9.53;4.77;;;9.40;94.60;;;;;;6340349;22;20002;-68
2022/11/12 07:51:49;;;;;;;9.03;5.30;;;9.40;94.70;;;;;;6340390;22;20325;-68
2022/11/12 07:54:15;;;;;;;8.23;5.13;;;9.50;94.70;;;;;;6340132;22;19999;-67
2022/11/12 07:56:41;;;;;;;9.10;5.17;;;9.50;94.70;;;;;;6339912;22;19998;-68
2022/11/12 07:59:06;;;;;;;10.67;5.97;;;9.50;94.70;;;;;;6340455;22;19994;-68
2022/11/12 08:01:40;;;;;;;16.13;5.53;;;9.50;94.60;;;;;;6340074;22;20482;-68
2022/11/12 08:04:08;;;;;;;15.77;5.67;;;9.60;94.60;;;;;;6340341;22;19995;-67
2022/11/12 08:06:34;;;;;;;10.77;4.80;;;9.60;94.60;;;;;;6339687;22;20010;-68
2022/11/12 08:09:01;;;;;;;10.93;5.00;;;9.70;94.60;;;;;;6340054;22;20417;-67
2022/11/12 08:11:27;;;;;;;12.27;4.77;;;9.70;94.70;;;;;;6340126;22;20421;-67
2022/11/12 08:13:53;;;;;;;13.70;4.90;;;9.70;94.60;;;;;;6340194;22;19999;-67
2022/11/12 08:16:19;;;;;;;8.73;5.55;;;9.80;94.60;;;;;;6339313;22;19998;-68
2022/11/12 08:18:45;;;;;;;20.83;7.23;;;9.70;94.60;;;;;;6340226;22;20048;-67
2022/11/12 08:21:14;;;;;;;23.37;10.20;;;9.80;94.70;;;;;;6339636;22;20005;-68
2022/11/12 08:23:40;;;;;;;55.17;15.47;;;9.80;94.80;;;;;;6337666;22;20014;-71
2022/11/12 08:26:07;;;;;;;26.33;13.77;;;9.80;94.80;;;;;;6339023;22;20044;-68
2022/11/12 08:28:35;;;;;;;22.67;13.45;;;9.90;94.70;;;;;;6311989;22;20011;-69
2022/11/12 08:31:10;;;;;;;27.83;12.30;;;9.90;94.60;;;;;;6339246;22;20002;-69
2022/11/12 08:33:36;;;;;;;25.53;13.03;;;10.00;94.70;;;;;;6339009;22;20444;-68
2022/11/12 08:36:07;;;;;;;50.80;13.77;;;10.00;94.60;;;;;;6339303;22;20441;-68
2022/11/12 08:38:33;;;;;;;28.30;12.27;;;10.00;94.60;;;;;;6339900;22;20010;-66
2022/11/12 08:41:07;;;;;;;26.67;11.90;;;10.10;94.60;;;;;;6339359;22;20002;-66
2022/11/12 08:43:34;;;;;;;17.80;10.40;;;10.10;94.50;;;;;;6339150;22;19999;-68
2022/11/12 08:46:00;;;;;;;20.60;9.93;;;10.10;94.50;;;;;;6339263;22;20030;-67
2022/11/12 08:48:27;;;;;;;21.42;9.05;;;10.20;94.30;;;;;;6338815;22;20006;-68
2022/11/12 08:50:54;;;;;;;12.70;7.22;;;10.20;94.20;;;;;;6312117;22;20026;-68
2022/11/12 08:53:21;;;;;;;10.57;6.20;;;10.30;94.10;;;;;;6339679;22;20074;-68
2022/11/12 08:55:47;;;;;;;9.67;5.60;;;10.30;94.10;;;;;;6339595;22;20074;-66
2022/11/12 08:58:13;;;;;;;10.00;5.18;;;10.30;94.10;;;;;;6339348;22;20370;-68
2022/11/12 09:00:42;;;;;;;10.77;5.03;;;10.40;94.10;;;;;;6339740;22;20003;-68
2022/11/12 09:03:14;;;;;;;7.38;4.68;;;10.40;94.00;;;;;;6339912;22;20356;-68
2022/11/12 09:05:40;;;;;;;10.38;5.10;;;10.50;94.00;;;;;;6339487;22;20087;-68
2022/11/12 09:08:09;;;;;;;11.48;4.80;;;10.50;94.00;;;;;;6340182;22;20011;-68
2022/11/12 09:10:35;;;;;;;9.43;4.50;;;10.50;94.00;;;;;;6339591;22;19998;-68
2022/11/12 09:13:01;;;;;;;11.55;4.55;;;10.60;94.00;;;;;;6339480;22;20022;-68
2022/11/12 09:15:28;;;;;;;8.73;4.00;;;10.70;94.00;;;;;;6339083;22;20003;-67
2022/11/12 09:17:58;;;;;;;6.55;3.78;;;10.70;94.00;;;;;;6339348;22;20009;-68
2022/11/12 09:20:27;;;;;;;7.78;3.80;;;10.80;94.00;;;;;;6339317;22;20005;-68
2022/11/12 09:22:56;;;;;;;5.05;3.38;;;10.80;94.10;;;;;;6339427;22;20002;-68
2022/11/12 09:25:22;;;;;;;5.00;3.20;;;10.90;94.20;;;;;;6339963;22;20006;-69
2022/11/12 09:27:48;;;;;;;5.88;3.28;;;10.90;94.10;;;;;;6338558;22;20014;-68
2022/11/12 09:30:14;;;;;;;5.25;3.40;;;10.90;93.90;;;;;;6339367;22;20135;-68
2022/11/12 09:32:39;;;;;;;4.10;2.55;;;11.00;94.00;;;;;;6339404;22;19999;-68
2022/11/12 09:35:05;;;;;;;9.85;3.45;;;11.00;93.90;;;;;;6339633;22;19998;-68
2022/11/12 09:37:31;;;;;;;7.40;4.68;;;11.00;93.80;;;;;;6339473;22;20003;-68
2022/11/12 09:39:57;;;;;;;8.10;4.65;;;11.10;93.80;;;;;;6339482;22;20033;-68
2022/11/12 09:42:23;;;;;;;8.98;5.82;;;11.10;93.70;;;;;;6339287;22;20007;-68
2022/11/12 09:44:59;;;;;;;12.00;7.07;;;11.10;93.80;;;;;;6339191;22;20006;-68
2022/11/12 09:47:43;;;;;;;13.07;6.93;;;11.10;94.10;;;;;;6310969;22;20019;-68
2022/11/12 09:50:27;;;;;;;8.70;6.43;;;11.20;94.40;;;;;;6339559;22;20003;-68
2022/11/12 09:53:04;;;;;;;11.48;7.35;;;11.20;94.60;;;;;;6339350;22;20007;-69
2022/11/12 09:55:38;;;;;;;11.90;6.85;;;11.20;94.70;;;;;;6339708;22;20053;-68
2022/11/12 09:58:11;;;;;;;24.27;6.80;;;11.30;94.80;;;;;;6339488;22;20073;-69
2022/11/12 10:00:40;;;;;;;15.30;7.40;;;11.20;94.90;;;;;;6311583;22;20002;-68
2022/11/12 10:03:34;;;;;;;14.48;7.68;;;11.30;95.00;;;;;;6339627;22;20009;-68
2022/11/12 10:06:20;;;;;;;656.47;61.70;;;11.30;95.20;;;;;;6329927;22;20439;-69
2022/11/12 10:08:51;;;;;;;24.63;13.02;;;11.40;96.20;;;;;;6338962;22;20006;-69
2022/11/12 10:14:53;;;;;;;17.17;12.40;;;11.50;97.60;;;;;;6338679;22;20028;-68
2022/11/12 10:17:43;;;;;;;15.32;9.65;;;11.50;97.10;;;;;;6338688;22;20073;-68
2022/11/12 10:20:14;;;;;;;20.10;9.98;;;11.50;97.00;;;;;;6338774;22;20013;-69
2022/11/12 10:22:51;;;;;;;20.25;10.50;;;11.60;96.90;;;;;;6338446;22;20021;-69
2022/11/12 10:25:18;;;;;;;18.63;9.77;;;11.60;96.70;;;;;;6338419;22;20090;-68
2022/11/12 10:27:45;;;;;;;21.00;9.07;;;11.60;96.50;;;;;;6338582;22;20011;-68
2022/11/12 10:30:17;;;;;;;24.17;8.38;;;11.70;96.20;;;;;;6338578;22;20417;-68
2022/11/12 10:32:45;;;;;;;11.10;6.75;;;11.70;96.10;;;;;;6338617;22;20010;-68
2022/11/12 10:35:15;;;;;;;14.55;5.97;;;11.80;96.00;;;;;;6338260;22;20060;-69
2022/11/12 10:37:52;;;;;;;8.52;4.70;;;11.80;95.90;;;;;;6338502;22;19999;-69
2022/11/12 10:40:23;;;;;;;6.97;4.65;;;11.80;95.90;;;;;;6338306;22;20121;-68
2022/11/12 10:43:19;;;;;;;8.07;3.92;;;11.80;95.70;;;;;;6338530;22;20002;-68
2022/11/12 10:45:46;;;;;;;7.03;3.70;;;11.90;95.50;;;;;;6338144;22;20003;-69
2022/11/12 10:48:32;;;;;;;8.23;3.50;;;11.90;95.40;;;;;;6338099;22;20593;-68
2022/11/12 10:50:58;;;;;;;4.95;3.15;;;11.90;95.30;;;;;;6338471;22;20006;-68
2022/11/12 10:53:31;;;;;;;3.85;2.00;;;12.00;95.20;;;;;;6338479;22;20026;-68
2022/11/12 10:56:03;;;;;;;6.95;2.50;;;12.00;95.10;;;;;;6338668;22;20002;-69
2022/11/12 10:58:29;;;;;;;6.32;3.08;;;12.00;94.40;;;;;;6337996;22;20010;-68
2022/11/12 11:01:11;;;;;;;6.13;3.45;;;12.00;94.20;;;;;;6338294;22;19999;-68
2022/11/12 11:03:44;;;;;;;;;;;12.10;94.40;;;;;;6338809;22;20070;-70
2022/11/12 11:06:13;;;;;;;4.00;1.95;;;12.10;94.20;;;;;;6338599;22;19907;-69
2022/11/12 11:08:50;;;;;;;4.57;1.75;;;12.10;93.80;;;;;;6337736;22;20006;-68
2022/11/12 11:11:16;;;;;;;3.85;1.98;;;12.10;93.40;;;;;;6337782;22;19995;-68
2022/11/12 11:13:45;;;;;;;4.70;2.20;;;12.20;93.10;;;;;;6336440;22;20044;-69
2022/11/12 11:16:19;;;;;;;5.53;2.95;;;12.20;93.20;;;;;;6338229;22;20460;-68
2022/11/12 11:18:51;;;;;;;5.63;2.47;;;12.20;93.40;;;;;;6338145;22;20002;-67
2022/11/12 11:21:43;;;;;;;4.47;1.98;;;12.20;93.50;;;;;;6338732;22;20018;-69
2022/11/12 11:24:11;;;;;;;3.15;1.98;;;12.30;93.10;;;;;;6337521;22;20007;-69
2022/11/12 11:26:38;;;;;;;5.80;2.08;;;12.30;92.80;;;;;;6338139;22;20019;-68
2022/11/12 11:29:13;;;;;;;3.03;1.73;;;12.30;92.50;;;;;;6337721;22;20009;-69
2022/11/12 11:31:49;;;;;;;4.18;1.60;;;12.40;92.40;;;;;;6338357;22;20076;-68
2022/11/12 11:34:31;;;;;;;5.15;2.10;;;12.40;92.40;;;;;;6338058;22;20030;-69
2022/11/12 11:37:26;;;;;;;3.22;1.85;;;12.40;92.20;;;;;;6308533;22;20003;-68
2022/11/12 11:40:30;;;;;;;3.90;1.30;;;12.50;92.30;;;;;;6338491;22;20003;-68
2022/11/12 11:43:27;;;;;;;4.72;1.80;;;12.50;92.20;;;;;;6338272;22;20019;-68
2022/11/12 11:46:25;;;;;;;6.60;2.05;;;12.50;92.00;;;;;;6337007;22;20052;-68
2022/11/12 11:48:59;;;;;;;6.32;1.80;;;12.50;92.10;;;;;;6321180;22;20394;-68
2022/11/12 11:51:44;;;;;;;6.03;1.90;;;12.50;92.00;;;;;;6338126;22;20354;-68
2022/11/12 11:54:43;;;;;;;3.67;1.63;;;12.60;92.00;;;;;;6338225;22;19999;-68
2022/11/12 11:57:18;;;;;;;6.35;1.63;;;12.60;92.10;;;;;;6338081;22;20018;-68
2022/11/12 11:59:50;;;;;;;3.85;1.95;;;12.60;92.20;;;;;;6338172;22;19995;-69
2022/11/12 12:02:30;;;;;;;7.22;1.58;;;12.70;92.10;;;;;;6337986;22;20005;-69
2022/11/12 12:05:15;;;;;;;4.35;1.77;;;12.70;92.10;;;;;;6338123;22;20440;-68
2022/11/12 12:08:06;;;;;;;2.30;1.40;;;12.70;91.80;;;;;;6338513;22;20007;-68
2022/11/12 12:10:35;;;;;;;2.95;1.60;;;12.80;92.20;;;;;;6338872;22;19999;-68
2022/11/12 12:13:04;;;;;;;3.35;1.85;;;12.80;91.50;;;;;;6339905;22;19999;-68
2022/11/12 12:16:01;;;;;;;7.55;1.50;;;12.80;91.50;;;;;;6340219;22;20002;-68
2022/11/12 12:18:54;;;;;;;2.63;1.42;;;12.80;91.50;;;;;;6340331;22;20003;-68
2022/11/12 12:21:22;;;;;;;3.10;1.58;;;12.80;91.40;;;;;;6312544;22;20009;-68
2022/11/12 12:23:48;;;;;;;2.80;1.70;;;12.90;91.50;;;;;;6338791;22;20007;-68
2022/11/12 12:26:22;;;;;;;2.97;1.67;;;12.90;91.60;;;;;;6339990;22;20021;-68
2022/11/12 12:29:09;;;;;;;5.40;1.73;;;12.90;91.70;;;;;;6340166;22;19999;-68
2022/11/12 12:31:49;;;;;;;2.60;1.70;;;12.90;91.90;;;;;;6340091;22;19999;-68
2022/11/12 12:34:28;;;;;;;5.47;1.65;;;12.90;91.70;;;;;;6340044;22;19999;-68
2022/11/12 12:37:03;;;;;;;2.92;1.67;;;13.00;91.60;;;;;;6340153;22;20025;-68
2022/11/12 12:39:57;;;;;;;4.15;1.80;;;12.90;91.50;;;;;;6339997;22;19999;-68
2022/11/12 12:42:41;;;;;;;4.55;2.03;;;13.00;91.40;;;;;;6340009;22;19999;-68
2022/11/12 12:45:40;;;;;;;8.05;3.10;;;12.90;91.60;;;;;;6339831;22;20007;-68
2022/11/12 12:48:21;;;;;;;6.88;2.88;;;12.90;92.20;;;;;;6332351;22;20031;-68
2022/11/12 12:50:50;;;;;;;23.42;5.03;;;12.90;92.40;;;;;;6339821;22;19995;-68
2022/11/12 12:53:27;;;;;;;7.30;2.92;;;13.00;92.50;;;;;;6339808;22;20081;-68
2022/11/12 12:55:57;;;;;;;8.65;2.80;;;13.00;92.50;;;;;;6339949;22;20484;-68
2022/11/12 12:58:39;;;;;;;11.45;3.00;;;13.00;92.20;;;;;;6339586;22;20007;-68
2022/11/12 13:01:19;;;;;;;4.25;2.38;;;13.00;92.10;;;;;;6340021;22;20070;-68
2022/11/12 13:03:50;;;;;;;9.80;3.35;;;13.00;92.00;;;;;;6339861;22;19995;-68
2022/11/12 13:06:23;;;;;;;10.70;3.92;;;13.00;92.30;;;;;;6340023;22;20060;-68
2022/11/12 13:08:54;;;;;;;9.77;3.70;;;13.00;92.30;;;;;;6340139;22;20006;-68
2022/11/12 13:12:20;;;;;;;11.38;4.13;;;13.00;92.60;;;;;;6339497;22;19999;-68
2022/11/12 13:14:30;;;;;;;10.43;4.82;;;13.00;93.10;;;;;;6339383;22;20002;-67
2022/11/12 13:16:58;;;;;;;9.90;5.25;;;13.00;93.40;;;;;;6339712;22;20006;-68
2022/11/12 13:19:31;;;;;;;9.88;5.47;;;13.00;94.10;;;;;;6339726;22;20002;-68
2022/11/12 13:22:18;;;;;;;13.30;5.45;;;13.00;94.20;;;;;;6339594;22;20002;-68
2022/11/12 13:25:04;;;;;;;12.40;5.95;;;13.00;94.50;;;;;;6339385;22;20071;-68
2022/11/12 13:27:41;;;;;;;10.27;4.43;;;13.00;94.70;;;;;;6339258;22;20085;-68
2022/11/12 13:30:29;;;;;;;10.70;3.63;;;13.10;94.70;;;;;;6339454;22;20429;-68
2022/11/12 13:32:57;;;;;;;5.25;3.22;;;13.00;94.50;;;;;;6339294;22;19995;-68